KPOF/POF METAR and TAF weather

Enter ICAO airport designator
Station Type Date Time Source
KPOF METAR 2019/12/07 04:53 UTC NOAA

KPOF 070453Z AUTO 01007KT 10SM CLR 03/M01 A3035 RMK AO2 SLP281 T00281006


Station Type Date Time Source
KPOF Decoded METAR 2019/12/07 04:53 UTC NOAA

POPLAR BLUFF MUN AIRPORT, MO, United States (KPOF) 36-46N 090-19W 100M
Dec 06, 2019 - 11:53 PM EST / 2019.12.07 0453 UTC
Wind: from the N (010 degrees) at 8 MPH (7 KT):0
Visibility: 10 mile(s):0
Sky conditions: clear
Temperature: 37.0 F (2.8 C)
Dew Point: 30.9 F (-0.6 C)
Relative Humidity: 78%
Pressure (altimeter): 30.35 in. Hg (1027 hPa)
ob: KPOF 070453Z AUTO 01007KT 10SM CLR 03/M01 A3035 RMK AO2 SLP281 T00281006
cycle: 5

Station Type Date Time Source
KPOF TAF UTC NOAA

Error!

Example: see airport list